Holeby, Denmark
Current Conditions -  °F | °C
As of 4:20 AM on Saturday 25 Oct 2014 (Local Time) from ETNL Reporting Station
Light Rain Light Rain  
Wind Chill:   Ceiling: 700
Heat Index:   Visibility: 4mi
Dew Point:   Wind: 9mph
Humidity: 93%   Direction: 150°SSE
Pressure: 30.06"   Gusts: NA
Location:  54.71°N, 11.46°E
Report Text: ETNL 250220Z 15008KT 6000 -RA BKN007 07/06 Q1018 GRN
Loading
Personal Weather Stations






























Interactive Weather Map
Tropical Storm Tracking
New forecast layout! Learn more

10-Day Weather Forecast

Advertisements
Track Severe Weather on mobile